createdAt,value
2022-10-17T00:00:40.214Z,60.64
2022-10-17T00:03:06.765Z,60.84
2022-10-17T00:05:33.353Z,60.81
2022-10-17T00:07:59.838Z,61.47
2022-10-17T00:10:26.349Z,60.79
2022-10-17T00:12:53.148Z,60.77
2022-10-17T00:15:22.253Z,60.94
2022-10-17T00:17:49.272Z,60.89
2022-10-17T00:20:16.653Z,60.79
2022-10-17T00:22:43.439Z,60.70
2022-10-17T00:25:10.404Z,60.79
2022-10-17T00:27:39.906Z,61.67
2022-10-17T00:30:09.749Z,61.34
2022-10-17T00:32:36.439Z,61.57
2022-10-17T00:35:03.184Z,61.36
2022-10-17T00:37:31.482Z,61.42
2022-10-17T00:39:58.427Z,61.29
2022-10-17T00:42:26.056Z,63.19
2022-10-17T00:45:29.388Z,61.94
2022-10-17T00:48:01.361Z,61.18
2022-10-17T00:50:28.318Z,61.82
2022-10-17T00:52:55.452Z,61.47
2022-10-17T00:55:29.575Z,61.81
2022-10-17T00:57:57.174Z,61.50
2022-10-17T01:00:24.466Z,61.32
2022-10-17T01:02:50.903Z,61.55
2022-10-17T01:05:18.705Z,62.11
2022-10-17T01:07:46.422Z,61.19
2022-10-17T01:10:13.490Z,62.33
2022-10-17T01:13:11.790Z,61.88
2022-10-17T01:16:00.268Z,61.47
2022-10-17T01:18:48.780Z,61.67
2022-10-17T01:21:29.962Z,61.33
2022-10-17T01:24:03.963Z,61.62
2022-10-17T01:26:42.646Z,61.45
2022-10-17T01:29:12.287Z,60.85
2022-10-17T01:31:44.636Z,61.81
2022-10-17T01:34:29.525Z,61.24
2022-10-17T01:37:25.403Z,61.08
2022-10-17T01:40:00.804Z,61.37
2022-10-17T01:42:44.484Z,60.81
2022-10-17T01:45:16.341Z,61.12
2022-10-17T01:47:43.089Z,60.77
2022-10-17T01:50:16.062Z,60.73
2022-10-17T01:52:50.603Z,60.70
2022-10-17T01:55:21.874Z,60.44
2022-10-17T01:57:51.713Z,60.73
2022-10-17T02:00:22.671Z,60.69
2022-10-17T02:02:50.267Z,60.56
2022-10-17T02:05:19.212Z,60.61
2022-10-17T02:07:45.853Z,60.67
2022-10-17T02:10:24.552Z,60.78
2022-10-17T02:13:02.300Z,60.96
2022-10-17T02:15:57.274Z,61.14
2022-10-17T02:18:31.516Z,60.87
2022-10-17T02:21:05.543Z,60.70
2022-10-17T02:23:49.045Z,60.74
2022-10-17T02:26:25.534Z,61.81
2022-10-17T02:29:08.811Z,62.24
2022-10-17T02:31:49.816Z,63.52
2022-10-17T02:34:43.596Z,64.66
2022-10-17T02:37:11.845Z,64.30
2022-10-17T02:39:40.082Z,65.71
2022-10-17T02:42:09.567Z,66.21
2022-10-17T02:44:38.415Z,66.80
2022-10-17T02:47:20.343Z,65.50
2022-10-17T02:49:51.981Z,69.51
2022-10-17T02:52:53.019Z,70.82
2022-10-17T02:55:24.299Z,69.53
2022-10-17T02:57:54.147Z,71.99
2022-10-17T03:00:23.873Z,70.93
2022-10-17T03:02:52.268Z,70.21
2022-10-17T03:05:22.286Z,69.29
2022-10-17T03:07:48.871Z,70.99
2022-10-17T03:10:15.792Z,70.73
2022-10-17T03:12:42.415Z,69.99
2022-10-17T03:15:09.528Z,71.95
2022-10-17T03:17:36.503Z,72.34
2022-10-17T03:20:03.963Z,71.68
2022-10-17T03:22:31.061Z,73.14
2022-10-17T03:24:57.894Z,72.44
2022-10-17T03:27:24.630Z,73.06
2022-10-17T03:29:52.090Z,72.82
2022-10-17T03:32:18.586Z,71.50
2022-10-17T03:34:45.037Z,70.61
2022-10-17T03:37:11.635Z,72.62
2022-10-17T03:39:39.275Z,73.19
2022-10-17T03:42:05.713Z,70.74
2022-10-17T03:44:32.274Z,71.11
2022-10-17T03:46:58.766Z,70.47
2022-10-17T03:49:25.372Z,72.57
2022-10-17T03:51:52.035Z,71.30
2022-10-17T03:54:18.524Z,70.50
2022-10-17T03:56:45.115Z,70.99
2022-10-17T03:59:14.511Z,72.34
2022-10-17T04:01:41.591Z,70.85
2022-10-17T04:04:08.819Z,69.20
2022-10-17T04:06:35.878Z,67.67
2022-10-17T04:09:03.169Z,68.63
2022-10-17T04:11:29.647Z,69.03
2022-10-17T04:13:57.639Z,68.36
2022-10-17T04:16:24.460Z,67.83
2022-10-17T04:18:55.847Z,66.83
2022-10-17T04:21:23.456Z,67.17
2022-10-17T04:23:58.002Z,67.05
2022-10-17T04:26:24.476Z,67.75
2022-10-17T04:28:51.206Z,68.21
2022-10-17T04:31:18.570Z,66.59
2022-10-17T04:33:47.779Z,67.98
2022-10-17T04:36:16.710Z,68.02
2022-10-17T04:38:43.419Z,68.47
2022-10-17T04:41:16.659Z,66.92
2022-10-17T04:43:45.602Z,67.07
2022-10-17T04:46:15.880Z,65.96
2022-10-17T04:48:42.521Z,67.31
2022-10-17T04:51:14.664Z,66.14
2022-10-17T04:53:42.132Z,64.92
2022-10-17T04:56:14.804Z,65.39
2022-10-17T04:58:42.356Z,66.89
2022-10-17T05:01:11.920Z,66.68
2022-10-17T05:03:38.875Z,65.92
2022-10-17T05:06:14.052Z,66.46
2022-10-17T05:08:41.190Z,65.48
2022-10-17T05:11:16.925Z,66.06
2022-10-17T05:13:43.768Z,65.62
2022-10-17T05:16:10.805Z,65.21
2022-10-17T05:18:37.387Z,63.80
2022-10-17T05:21:04.553Z,65.35
2022-10-17T05:23:31.055Z,63.79
2022-10-17T05:25:57.582Z,63.61
2022-10-17T05:28:24.855Z,63.29
2022-10-17T05:30:51.748Z,63.53
2022-10-17T05:33:22.998Z,65.96
2022-10-17T05:35:49.588Z,66.77
2022-10-17T05:38:16.130Z,66.36
2022-10-17T05:40:42.708Z,64.84
2022-10-17T05:43:09.167Z,64.48
2022-10-17T05:45:36.073Z,66.54
2022-10-17T05:48:02.656Z,66.26
2022-10-17T05:50:29.119Z,66.67
2022-10-17T05:52:55.670Z,66.02
2022-10-17T05:55:23.103Z,66.86
2022-10-17T05:57:50.587Z,66.81
2022-10-17T06:00:17.281Z,65.56
2022-10-17T06:02:45.908Z,65.51
2022-10-17T06:05:12.988Z,65.56
2022-10-17T06:07:40.556Z,64.91
2022-10-17T06:10:07.358Z,64.83
2022-10-17T06:12:34.042Z,63.26
2022-10-17T06:15:00.799Z,63.91
2022-10-17T06:17:28.133Z,64.12
2022-10-17T06:19:54.952Z,62.67
2022-10-17T06:22:21.537Z,60.81
2022-10-17T06:24:48.177Z,61.27
2022-10-17T06:27:14.687Z,60.62
2022-10-17T06:29:41.218Z,60.40
2022-10-17T06:32:09.970Z,61.44
2022-10-17T06:34:39.279Z,61.43
2022-10-17T06:37:05.778Z,61.27
2022-10-17T06:39:33.962Z,61.85
2022-10-17T06:42:01.736Z,63.06
2022-10-17T06:44:31.919Z,61.63
2022-10-17T06:47:00.367Z,62.61
2022-10-17T06:49:27.592Z,62.42
2022-10-17T06:51:54.657Z,62.26
2022-10-17T06:54:21.324Z,61.45
2022-10-17T06:56:47.937Z,60.17
2022-10-17T06:59:15.795Z,59.56
2022-10-17T07:01:46.065Z,59.77
2022-10-17T07:04:14.064Z,61.81
2022-10-17T07:06:40.645Z,59.80
2022-10-17T07:09:07.458Z,59.22
2022-10-17T07:11:37.413Z,59.60
2022-10-17T07:14:04.208Z,59.55
2022-10-17T07:16:30.760Z,60.05
2022-10-17T07:18:57.252Z,59.36
2022-10-17T07:21:24.014Z,57.47
2022-10-17T07:23:51.152Z,57.67
2022-10-17T07:26:18.544Z,58.90
2022-10-17T07:28:46.834Z,57.43
2022-10-17T07:31:17.710Z,57.69
2022-10-17T07:36:12.257Z,56.65
2022-10-17T07:38:39.332Z,57.78
2022-10-17T07:41:07.586Z,57.09
2022-10-17T07:43:34.829Z,55.19
2022-10-17T07:46:02.017Z,54.03
2022-10-17T07:48:28.667Z,54.59
2022-10-17T07:50:55.101Z,53.22
2022-10-17T07:53:21.854Z,52.98
2022-10-17T07:55:51.561Z,54.02
2022-10-17T07:58:18.217Z,51.87
2022-10-17T08:00:48.401Z,52.31
2022-10-17T08:03:15.289Z,53.21
2022-10-17T08:05:42.054Z,51.40
2022-10-17T08:08:08.625Z,52.51
2022-10-17T08:10:35.091Z,50.95
2022-10-17T08:13:01.734Z,51.37
2022-10-17T08:15:31.756Z,52.61
2022-10-17T08:17:59.221Z,50.86
2022-10-17T08:20:25.764Z,49.50
2022-10-17T08:22:53.445Z,49.43
2022-10-17T08:25:20.248Z,48.76
2022-10-17T08:27:46.897Z,49.59
2022-10-17T08:30:13.525Z,50.00
2022-10-17T08:32:40.419Z,48.51
2022-10-17T08:35:07.169Z,51.49
2022-10-17T08:37:34.197Z,48.54
2022-10-17T08:40:00.897Z,47.84
2022-10-17T08:42:34.375Z,47.22
2022-10-17T08:45:30.657Z,50.07
2022-10-17T08:48:11.456Z,46.33
2022-10-17T08:50:48.581Z,45.88
2022-10-17T08:53:21.495Z,45.16
2022-10-17T08:55:50.590Z,46.07
2022-10-17T08:58:27.403Z,45.61
2022-10-17T09:01:34.024Z,44.82
2022-10-17T09:04:09.657Z,45.92
2022-10-17T09:06:42.438Z,45.70
2022-10-17T09:09:22.302Z,42.68
2022-10-17T09:12:14.587Z,42.58
2022-10-17T09:14:47.218Z,43.14
2022-10-17T09:17:32.639Z,41.34
2022-10-17T09:20:09.904Z,40.50
2022-10-17T09:25:33.087Z,37.94
2022-10-17T09:28:22.380Z,39.70
2022-10-17T09:31:04.098Z,38.14
2022-10-17T09:33:55.270Z,35.13
2022-10-17T09:36:24.961Z,31.75
2022-10-17T09:39:00.237Z,29.94
2022-10-17T09:41:46.822Z,31.17
2022-10-17T09:44:23.181Z,31.64
2022-10-17T09:47:26.806Z,31.62
2022-10-17T09:49:53.511Z,28.07
2022-10-17T09:52:41.282Z,25.79
2022-10-17T09:55:21.849Z,25.92
2022-10-17T09:57:57.599Z,22.32
2022-10-17T10:00:28.107Z,20.73
2022-10-17T10:03:13.201Z,22.56
2022-10-17T10:05:40.584Z,22.60
2022-10-17T10:08:16.175Z,21.04
2022-10-17T10:10:43.665Z,18.68
2022-10-17T10:13:13.173Z,18.23
2022-10-17T10:16:21.211Z,23.92
2022-10-17T10:18:50.144Z,29.57
2022-10-17T10:21:23.236Z,33.12
2022-10-17T10:24:06.863Z,35.97
2022-10-17T10:26:39.538Z,39.49
2022-10-17T10:29:19.382Z,41.61
2022-10-17T10:31:46.361Z,44.16
2022-10-17T10:34:26.536Z,43.39
2022-10-17T10:37:04.756Z,46.42
2022-10-17T10:39:32.999Z,46.58
2022-10-17T10:42:01.327Z,46.49
2022-10-17T10:44:31.064Z,48.48
2022-10-17T10:47:30.943Z,47.10
2022-10-17T10:50:25.480Z,46.20
2022-10-17T10:53:22.070Z,46.91
2022-10-17T10:56:30.417Z,45.35
2022-10-17T10:59:00.590Z,45.54
2022-10-17T11:01:42.812Z,47.33
2022-10-17T11:04:21.471Z,47.20
2022-10-17T11:06:50.427Z,46.12
2022-10-17T11:09:24.319Z,48.52
2022-10-17T11:11:58.716Z,49.88
2022-10-17T11:14:28.080Z,48.80
2022-10-17T11:16:58.185Z,47.30
2022-10-17T11:19:26.779Z,46.45
2022-10-17T11:21:53.538Z,47.39
2022-10-17T11:24:35.803Z,46.66
2022-10-17T11:27:04.827Z,46.57
2022-10-17T11:29:33.629Z,45.93
2022-10-17T11:32:14.154Z,47.50
2022-10-17T11:34:44.212Z,50.60
2022-10-17T11:37:18.984Z,47.30
2022-10-17T11:39:55.247Z,46.78
2022-10-17T11:42:34.592Z,48.28
2022-10-17T11:45:16.228Z,49.61
2022-10-17T11:47:55.706Z,48.80
2022-10-17T11:53:22.278Z,49.14
2022-10-17T11:55:49.794Z,48.39
2022-10-17T11:58:47.309Z,48.74
2022-10-17T12:01:38.051Z,47.75
2022-10-17T12:04:39.268Z,50.05
2022-10-17T12:07:10.750Z,47.75
2022-10-17T12:09:52.490Z,46.81
2022-10-17T12:12:28.391Z,48.24
2022-10-17T12:15:06.517Z,47.46
2022-10-17T12:17:43.478Z,47.27
2022-10-17T12:20:28.755Z,47.16
2022-10-17T12:23:04.393Z,46.22
2022-10-17T12:25:34.162Z,46.54
2022-10-17T12:28:06.867Z,48.13
2022-10-17T12:30:33.816Z,48.40
2022-10-17T12:33:22.461Z,47.38
2022-10-17T12:35:51.236Z,46.56
2022-10-17T12:38:17.765Z,46.43
2022-10-17T12:40:48.615Z,46.90
2022-10-17T12:43:15.864Z,46.89
2022-10-17T12:45:55.169Z,49.45
2022-10-17T12:48:33.832Z,50.08
2022-10-17T12:51:34.095Z,49.07
2022-10-17T12:54:00.457Z,48.92
2022-10-17T12:56:52.470Z,50.46
2022-10-17T12:59:27.410Z,48.89
2022-10-17T13:01:59.194Z,49.82
2022-10-17T13:04:26.833Z,47.97
2022-10-17T13:06:56.044Z,48.94
2022-10-17T13:09:30.151Z,49.67
2022-10-17T13:11:59.477Z,47.81
2022-10-17T13:14:26.874Z,48.86
2022-10-17T13:17:02.037Z,48.00
2022-10-17T13:19:43.562Z,48.87
2022-10-17T13:22:17.658Z,49.39
2022-10-17T13:24:44.662Z,48.56
2022-10-17T13:27:40.755Z,48.74
2022-10-17T13:30:29.348Z,48.79
2022-10-17T13:32:58.622Z,49.81
2022-10-17T13:35:58.732Z,50.52
2022-10-17T13:38:29.013Z,49.48
2022-10-17T13:41:05.763Z,49.69
2022-10-17T13:43:42.503Z,50.91
2022-10-17T13:46:36.809Z,51.78
2022-10-17T13:49:34.570Z,50.95
2022-10-17T13:52:02.981Z,50.13
2022-10-17T13:54:33.033Z,50.34
2022-10-17T13:57:00.011Z,50.77
2022-10-17T13:59:40.448Z,51.86
2022-10-17T14:02:14.602Z,51.26
2022-10-17T14:05:11.527Z,51.01
2022-10-17T14:08:05.412Z,51.39
2022-10-17T14:10:25.420Z,53.77
2022-10-17T14:12:52.913Z,52.87
2022-10-17T14:15:20.000Z,53.97
2022-10-17T14:17:46.671Z,53.62
2022-10-17T14:23:29.493Z,52.94
2022-10-17T14:26:15.737Z,53.38
2022-10-17T14:28:44.872Z,52.41
2022-10-17T14:31:25.634Z,53.08
2022-10-17T14:33:54.123Z,52.62
2022-10-17T14:36:29.511Z,53.01
2022-10-17T14:38:56.070Z,53.23
2022-10-17T14:41:47.303Z,53.62
2022-10-17T14:44:19.141Z,54.14
2022-10-17T14:46:49.759Z,54.89
2022-10-17T14:49:24.823Z,53.62
2022-10-17T14:52:18.348Z,56.07
2022-10-17T14:54:49.458Z,55.57
2022-10-17T14:57:22.050Z,55.31
2022-10-17T14:59:56.070Z,55.97
2022-10-17T15:02:27.112Z,54.20
2022-10-17T15:04:54.055Z,54.44
2022-10-17T15:07:21.708Z,55.10
2022-10-17T15:09:49.348Z,54.33
2022-10-17T15:12:25.191Z,54.14
2022-10-17T15:14:52.674Z,54.09
2022-10-17T15:17:30.889Z,54.46
2022-10-17T15:19:57.837Z,52.79
2022-10-17T15:22:24.781Z,55.08
2022-10-17T15:24:51.566Z,54.81
2022-10-17T15:27:20.907Z,55.56
2022-10-17T15:29:48.208Z,56.86
2022-10-17T15:32:15.048Z,56.48
2022-10-17T15:34:41.627Z,55.90
2022-10-17T15:37:16.807Z,56.42
2022-10-17T15:39:43.378Z,57.81
2022-10-17T15:42:11.805Z,57.21
2022-10-17T15:44:41.418Z,56.99
2022-10-17T15:47:15.794Z,56.80
2022-10-17T15:49:42.284Z,57.29
2022-10-17T15:52:08.878Z,56.76
2022-10-17T15:54:35.356Z,57.88
2022-10-17T15:57:01.937Z,57.38
2022-10-17T15:59:32.518Z,56.34
2022-10-17T16:01:59.020Z,59.43
2022-10-17T16:04:27.474Z,61.76
2022-10-17T16:06:54.341Z,62.52
2022-10-17T16:09:20.836Z,63.59
2022-10-17T16:11:47.339Z,63.39
2022-10-17T16:14:15.590Z,65.27
2022-10-17T16:16:42.394Z,65.85
2022-10-17T16:19:09.169Z,65.28
2022-10-17T16:21:37.472Z,67.10
2022-10-17T16:24:04.759Z,68.06
2022-10-17T16:26:31.641Z,67.99
2022-10-17T16:29:02.744Z,67.47
2022-10-17T16:31:33.866Z,68.80
2022-10-17T16:34:01.988Z,68.14
2022-10-17T16:36:28.667Z,68.70
2022-10-17T16:38:55.304Z,70.65
2022-10-17T16:41:24.918Z,70.91
2022-10-17T16:43:55.960Z,70.58
2022-10-17T16:46:23.503Z,71.79
2022-10-17T16:48:50.609Z,71.70
2022-10-17T16:51:18.870Z,71.10
2022-10-17T16:53:46.616Z,72.58
2022-10-17T16:56:23.731Z,73.27
2022-10-17T16:58:51.654Z,70.85
2022-10-17T17:01:20.306Z,73.15
2022-10-17T17:03:47.585Z,74.14
2022-10-17T17:06:17.218Z,75.02
2022-10-17T17:08:44.056Z,74.13
2022-10-17T17:11:12.603Z,74.24
2022-10-17T17:13:40.764Z,74.74
2022-10-17T17:16:15.424Z,75.13
2022-10-17T17:18:42.496Z,72.92
2022-10-17T17:21:10.847Z,73.40
2022-10-17T17:23:41.742Z,72.02
2022-10-17T17:26:15.669Z,73.08
2022-10-17T17:28:43.256Z,71.97
2022-10-17T17:31:12.642Z,70.61
2022-10-17T17:33:40.131Z,70.84
2022-10-17T17:36:07.678Z,71.07
2022-10-17T17:38:35.938Z,71.67
2022-10-17T17:41:03.237Z,72.31
2022-10-17T17:43:30.345Z,72.29
2022-10-17T17:45:56.902Z,71.51
2022-10-17T17:48:30.735Z,71.60
2022-10-17T17:50:57.337Z,71.28
2022-10-17T17:53:23.990Z,70.99
2022-10-17T17:56:07.728Z,72.16
2022-10-17T17:58:35.162Z,71.44
2022-10-17T18:01:02.372Z,71.70
2022-10-17T18:03:28.838Z,73.41
2022-10-17T18:05:55.346Z,71.99
2022-10-17T18:08:21.882Z,71.61
2022-10-17T18:10:54.286Z,71.44
2022-10-17T18:13:20.862Z,74.59
2022-10-17T18:15:48.809Z,76.17
2022-10-17T18:18:15.303Z,75.68
2022-10-17T18:20:42.630Z,76.19
2022-10-17T18:23:10.117Z,76.37
2022-10-17T18:25:36.739Z,76.82
2022-10-17T18:28:03.968Z,75.60
2022-10-17T18:30:33.736Z,73.40
2022-10-17T18:33:01.276Z,73.69
2022-10-17T18:35:27.861Z,74.08
2022-10-17T18:37:56.775Z,74.44
2022-10-17T18:40:23.259Z,72.52
2022-10-17T18:42:49.721Z,71.43
2022-10-17T18:45:17.345Z,71.65
2022-10-17T18:47:47.123Z,70.86
2022-10-17T18:50:15.091Z,70.69
2022-10-17T18:52:41.660Z,69.83
2022-10-17T18:55:08.997Z,69.33
2022-10-17T18:57:35.444Z,69.21
2022-10-17T19:00:02.007Z,68.40
2022-10-17T19:02:28.531Z,68.53
2022-10-17T19:05:03.539Z,68.28
2022-10-17T19:07:30.232Z,67.97
2022-10-17T19:09:57.102Z,68.31
2022-10-17T19:12:23.539Z,69.04
2022-10-17T19:14:50.820Z,68.14
2022-10-17T19:17:17.340Z,67.72
2022-10-17T19:19:43.882Z,68.16
2022-10-17T19:22:10.480Z,67.87
2022-10-17T19:24:37.075Z,69.74
2022-10-17T19:27:05.130Z,69.29
2022-10-17T19:29:32.969Z,70.80
2022-10-17T19:32:00.516Z,70.52
2022-10-17T19:34:27.796Z,70.63
2022-10-17T19:36:55.646Z,70.83
2022-10-17T19:39:23.857Z,69.88
2022-10-17T19:41:50.476Z,69.64
2022-10-17T19:44:17.061Z,69.44
2022-10-17T19:46:46.568Z,69.52
2022-10-17T19:49:16.457Z,68.78
2022-10-17T19:51:43.112Z,68.49
2022-10-17T19:54:09.997Z,69.24
2022-10-17T19:56:38.049Z,68.90
2022-10-17T19:59:06.451Z,68.35
2022-10-17T20:01:35.182Z,68.41
2022-10-17T20:04:04.263Z,68.15
2022-10-17T20:06:32.556Z,69.08
2022-10-17T20:08:59.188Z,69.33
2022-10-17T20:11:28.300Z,69.02
2022-10-17T20:13:55.512Z,68.89
2022-10-17T20:16:33.086Z,68.18
2022-10-17T20:19:08.311Z,68.41
2022-10-17T20:21:36.533Z,68.67
2022-10-17T20:24:04.941Z,68.94
2022-10-17T20:26:38.202Z,68.91
2022-10-17T20:29:11.378Z,68.26
2022-10-17T20:31:39.396Z,69.94
2022-10-17T20:34:08.097Z,68.74
2022-10-17T20:36:37.382Z,68.75
2022-10-17T20:39:05.357Z,68.40
2022-10-17T20:41:31.895Z,68.10
2022-10-17T20:43:58.501Z,68.20
2022-10-17T20:46:48.515Z,67.55
2022-10-17T20:49:15.929Z,67.85
2022-10-17T20:51:42.647Z,67.74
2022-10-17T20:54:09.256Z,67.37
2022-10-17T20:56:36.130Z,66.93
2022-10-17T20:59:08.410Z,67.37
2022-10-17T21:01:35.882Z,67.14
2022-10-17T21:04:26.896Z,66.79
2022-10-17T21:06:52.208Z,66.98
2022-10-17T21:09:19.339Z,67.24
2022-10-17T21:11:45.872Z,67.46
2022-10-17T21:14:12.779Z,67.83
2022-10-17T21:16:40.217Z,67.58
2022-10-17T21:19:06.728Z,67.03
2022-10-17T21:21:36.592Z,67.17
2022-10-17T21:24:06.491Z,67.52
2022-10-17T21:26:34.521Z,67.26
2022-10-17T21:29:05.892Z,67.18
2022-10-17T21:31:34.399Z,66.89
2022-10-17T21:34:05.435Z,66.89
2022-10-17T21:36:32.075Z,67.11
2022-10-17T21:38:58.631Z,67.31
2022-10-17T21:41:28.043Z,66.62
2022-10-17T21:43:56.292Z,66.83
2022-10-17T21:46:23.086Z,66.63
2022-10-17T21:48:51.704Z,66.42
2022-10-17T21:51:22.439Z,66.77
2022-10-17T21:53:50.798Z,66.17
2022-10-17T21:56:19.157Z,66.25
2022-10-17T21:58:46.082Z,66.24
2022-10-17T22:01:15.309Z,66.75
2022-10-17T22:03:46.595Z,66.50
2022-10-17T22:06:38.577Z,66.26
2022-10-17T22:09:07.573Z,66.18
2022-10-17T22:11:35.110Z,66.14
2022-10-17T22:14:05.051Z,66.24
2022-10-17T22:16:32.222Z,66.13
2022-10-17T22:19:03.209Z,65.83
2022-10-17T22:21:32.681Z,66.12
2022-10-17T22:24:01.110Z,66.04
2022-10-17T22:26:28.972Z,67.37
2022-10-17T22:28:56.062Z,67.46
2022-10-17T22:31:22.818Z,67.02
2022-10-17T22:33:49.363Z,66.78
2022-10-17T22:36:17.031Z,66.43
2022-10-17T22:38:43.457Z,66.87
2022-10-17T22:41:10.071Z,66.78
2022-10-17T22:43:36.589Z,66.68
2022-10-17T22:46:04.479Z,66.44
2022-10-17T22:48:31.375Z,66.52
2022-10-17T22:50:58.834Z,65.97
2022-10-17T22:53:26.721Z,66.01
2022-10-17T22:55:54.479Z,65.75
2022-10-17T22:58:21.663Z,66.53
2022-10-17T23:00:50.084Z,66.93
2022-10-17T23:03:18.949Z,67.01
2022-10-17T23:05:45.721Z,67.00
2022-10-17T23:08:13.375Z,67.00
2022-10-17T23:10:40.018Z,66.70
2022-10-17T23:13:07.463Z,66.54
2022-10-17T23:15:34.350Z,66.48
2022-10-17T23:18:01.660Z,66.53
2022-10-17T23:20:29.454Z,66.46
2022-10-17T23:23:05.559Z,66.47
2022-10-17T23:25:33.795Z,66.83
2022-10-17T23:28:00.443Z,66.15
2022-10-17T23:30:27.040Z,66.28
2022-10-17T23:32:53.558Z,65.92
2022-10-17T23:35:20.094Z,66.06
2022-10-17T23:37:46.552Z,66.59
2022-10-17T23:40:13.259Z,66.45
2022-10-17T23:42:39.787Z,66.75
2022-10-17T23:45:06.924Z,67.00
2022-10-17T23:47:33.709Z,66.23
2022-10-17T23:50:01.040Z,66.24
2022-10-17T23:52:27.796Z,66.19
2022-10-17T23:54:54.297Z,66.25
2022-10-17T23:57:20.739Z,66.05
2022-10-17T23:59:47.235Z,66.38
